Grand Rapids, MN

6:53 AM CST on December 21, 2014 (GMT -0600)
Near Hwy 63 & Hwy 72 Cohasset, MN | Change Station
CLOSE
Current Station
Personal Weather Station
Location: Cohasset, MN
Elevation: 1292 ft
Nearby Weather Stations

Elev 1292 ft 47.24 °N, 93.59 °W | Updated 8 seconds ago

Overcast
Overcast
28.5 °F
Feels Like 28 °F
N
1.0
Wind Variable Wind from SE
Gusts 8.0 mph

Today
High -- | Low -- °F
--% Chance of Precip.
Yesterday
High -- | Low -- °F
Precip. -- in
7:58 AM 4:26 PM
Waning Crescent, 0% visible
Pressure 29.84 in
Visibility 5.0 miles
Clouds Overcast 500 ft
Windchill 28 °F
Dew Point 26 °F
Humidity 91%
Rainfall 0.00 in
Snow Depth Not available.
UV 0 out of 12
Pollen .10 out of 12
Air Quality Not available.
Flu Activity Not available.
METAR KGPZ 211235Z AUTO 16012G17KT 5SM OVC005 M02/M03 A2984 RMK AO1

More Conditions Fewer Conditions

Pressure 29.84 in
Visibility 5.0 miles
Clouds Overcast 500 ft
Windchill 28 °F
Dew Point 26 °F
Humidity 91%
Rainfall 0.00 in
Snow Depth Not available.
UV 0 out of 12
Pollen .10 out of 12
Air Quality Not available.
Flu Activity Not available.
METAR KGPZ 211235Z AUTO 16012G17KT 5SM OVC005 M02/M03 A2984 RMK AO1

More Conditions Fewer Conditions

10-Day Weather Forecast

Almanac

Astronomy

Dec. 21, 2014 Rise Set
Actual Time
Civil Twilight
Nautical Twilight
Astronomical Twilight
Moon
Length of Visible Light
Length of Day
Tomorrow will be .
, % of the Moon is Illuminated

Today's Extremes

State Highs State Lows

Community

WunderPhotos

Upload Photos

1,779,372 photos uploaded!

WunderBlogs® & News

Nearby

Air Quality

  Air Quality AQ Index Pollutant
Not available.

Snow Depth

Station Depth Elevation

Earthquake Activity

City Distance Mag. Time & Date
Minimum magnitude displayed is 2.5.

Coastal Water Temperatures

Place Temperature

Nearby Weather Stations